Mc Knightstown, Pennsylvania
Current Conditions -  °F | °C
As of 1:53 PM on Tuesday 27 Jan 2015 (Local Time) from KRYT Reporting Station
Broken Clouds Broken Clouds  
Wind Chill: 23°   Ceiling: 2400
Heat Index: 30°   Visibility: 10mi
Dew Point: 19°   Wind: 7mph
Humidity: 64%   Direction: NA
Pressure: 29.77"   Gusts: 17mph
Location:  39.8752°N, 77.3219°W
Report Text: KRYT 271853Z VRB06G15KT 10SM BKN024 M01/M07 A2977 RMK AO2 SLP099 T10111072 $
Loading
Personal Weather Stations






























Interactive Weather Map New forecast layout! Learn more

10-Day Weather Forecast

Advertisements
Track Severe Weather on mobile